Bullocktown, Indiana
Current Conditions -  °F | °C
As of 1:54 AM on Tuesday 27 Jan 2015 (Local Time) from KEVV Reporting Station
Haze Haze  
Wind Chill: 32°   Ceiling: 400
Heat Index: 32°   Visibility: 4mi
Dew Point: 29°   Wind: 0mph
Humidity: 88%   Direction: NA
Pressure: 29.92"   Gusts: NA
Location:  38.0544°N, 87.2562°W
Report Text: KEVV 270754Z AUTO 00000KT 4SM BR BKN004 OVC028 00/M02 A2992 RMK AO2 UPE01 SLP136 P0000 T00001017
Loading
Personal Weather Stations






























Interactive Weather Map New forecast layout! Learn more

10-Day Weather Forecast

Advertisements
Track Severe Weather on mobile